Albemarle, North Carolina
Current Conditions -  °F | °C
As of 8:15 PM on Tuesday 27 Jan 2015 (Local Time) from KVUJ Reporting Station
Clear Clear  
Wind Chill: 38°   Ceiling: Unl
Heat Index: 38°   Visibility: 10mi
Dew Point: 18°   Wind: 3mph
Humidity: 44%   Direction: 300°WNW
Pressure: 29.99"   Gusts: NA
Location:  35.35°N, 80.19°W
Report Text: KVUJ 280115Z AUTO 30003KT 10SM CLR 03/M08 A2999 RMK AO2 T00331078
Loading
Personal Weather Stations






























Interactive Weather Map New forecast layout! Learn more

10-Day Weather Forecast

Advertisements
Track Severe Weather on mobile